createdAt,value
2023-01-15T00:00:54.327Z,993.39
2023-01-15T00:01:54.289Z,993.31
2023-01-15T00:02:54.354Z,993.36
2023-01-15T00:03:54.305Z,993.35
2023-01-15T00:04:54.279Z,993.37
2023-01-15T00:05:54.267Z,993.35
2023-01-15T00:06:54.259Z,993.39
2023-01-15T00:07:54.221Z,993.32
2023-01-15T00:08:54.222Z,993.33
2023-01-15T00:09:54.207Z,993.28
2023-01-15T00:10:54.219Z,993.32
2023-01-15T00:11:54.185Z,993.30
2023-01-15T00:12:54.177Z,993.24
2023-01-15T00:13:54.162Z,993.33
2023-01-15T00:14:54.157Z,993.32
2023-01-15T00:15:54.231Z,993.38
2023-01-15T00:16:54.147Z,993.35
2023-01-15T00:17:54.118Z,993.24
2023-01-15T00:18:54.107Z,993.32
2023-01-15T00:19:54.095Z,993.40
2023-01-15T00:20:54.091Z,993.26
2023-01-15T00:21:54.276Z,993.27
2023-01-15T00:22:54.070Z,993.43
2023-01-15T00:23:54.072Z,993.22
2023-01-15T00:24:54.062Z,993.32
2023-01-15T00:25:54.036Z,993.23
2023-01-15T00:26:54.040Z,993.30
2023-01-15T00:27:54.017Z,993.31
2023-01-15T00:28:54.020Z,993.29
2023-01-15T00:29:54.001Z,993.26
2023-01-15T00:30:54.018Z,993.18
2023-01-15T00:31:53.963Z,993.15
2023-01-15T00:32:53.964Z,993.13
2023-01-15T00:33:53.971Z,993.06
2023-01-15T00:34:53.956Z,992.96
2023-01-15T00:35:53.916Z,993.10
2023-01-15T00:36:53.915Z,992.99
2023-01-15T00:37:53.921Z,993.03
2023-01-15T00:38:53.908Z,993.03
2023-01-15T00:39:53.889Z,992.98
2023-01-15T00:40:53.880Z,992.98
2023-01-15T00:41:53.855Z,992.92
2023-01-15T00:42:54.715Z,992.92
2023-01-15T00:43:53.861Z,992.93
2023-01-15T00:44:53.846Z,992.90
2023-01-15T00:45:53.809Z,992.81
2023-01-15T00:46:53.815Z,992.75
2023-01-15T00:47:53.787Z,992.74
2023-01-15T00:48:53.794Z,992.73
2023-01-15T00:49:53.789Z,992.70
2023-01-15T00:50:53.757Z,992.72
2023-01-15T00:51:53.743Z,992.66
2023-01-15T00:52:53.735Z,992.71
2023-01-15T00:53:53.732Z,992.83
2023-01-15T00:54:53.740Z,992.80
2023-01-15T00:55:53.702Z,992.82
2023-01-15T00:56:53.712Z,992.82
2023-01-15T00:57:53.675Z,992.83
2023-01-15T00:58:53.667Z,992.88
2023-01-15T00:59:53.678Z,992.87
2023-01-15T01:00:53.701Z,992.78
2023-01-15T01:01:53.817Z,992.71
2023-01-15T01:02:53.651Z,992.74
2023-01-15T01:03:53.610Z,992.66
2023-01-15T01:04:53.604Z,992.66
2023-01-15T01:05:53.595Z,992.74
2023-01-15T01:06:53.587Z,992.78
2023-01-15T01:07:53.593Z,992.83
2023-01-15T01:08:53.568Z,992.78
2023-01-15T01:09:53.563Z,992.69
2023-01-15T01:10:53.538Z,992.62
2023-01-15T01:11:53.546Z,992.65
2023-01-15T01:12:53.571Z,992.65
2023-01-15T01:13:53.505Z,992.62
2023-01-15T01:14:53.500Z,992.65
2023-01-15T01:15:53.528Z,992.65
2023-01-15T01:16:53.472Z,992.71
2023-01-15T01:17:53.491Z,992.81
2023-01-15T01:18:53.459Z,992.79
2023-01-15T01:19:53.446Z,992.70
2023-01-15T01:20:53.434Z,992.74
2023-01-15T01:21:53.421Z,992.70
2023-01-15T01:22:53.435Z,992.62
2023-01-15T01:23:53.398Z,992.72
2023-01-15T01:24:53.392Z,992.67
2023-01-15T01:25:53.370Z,992.61
2023-01-15T01:26:54.715Z,992.64
2023-01-15T01:27:53.373Z,992.59
2023-01-15T01:28:53.353Z,992.70
2023-01-15T01:29:53.336Z,992.64
2023-01-15T01:30:53.325Z,992.66
2023-01-15T01:31:53.321Z,992.78
2023-01-15T01:32:53.326Z,992.74
2023-01-15T01:33:53.291Z,992.81
2023-01-15T01:34:53.282Z,992.76
2023-01-15T01:35:53.274Z,992.80
2023-01-15T01:36:53.261Z,992.70
2023-01-15T01:37:53.274Z,992.70
2023-01-15T01:38:53.236Z,992.70
2023-01-15T01:39:53.232Z,992.59
2023-01-15T01:40:53.217Z,992.63
2023-01-15T01:41:53.206Z,992.76
2023-01-15T01:42:53.189Z,992.61
2023-01-15T01:43:53.208Z,992.65
2023-01-15T01:44:53.168Z,992.50
2023-01-15T01:45:53.240Z,992.46
2023-01-15T01:46:53.143Z,992.39
2023-01-15T01:47:53.144Z,992.38
2023-01-15T01:48:53.157Z,992.47
2023-01-15T01:49:53.116Z,992.47
2023-01-15T01:50:53.103Z,992.45
2023-01-15T01:51:53.099Z,992.42
2023-01-15T01:52:53.078Z,992.36
2023-01-15T01:53:53.086Z,992.43
2023-01-15T01:54:53.081Z,992.48
2023-01-15T01:55:53.054Z,992.52
2023-01-15T01:56:53.039Z,992.54
2023-01-15T01:57:53.030Z,992.62
2023-01-15T01:58:53.021Z,992.58
2023-01-15T01:59:53.035Z,992.63
2023-01-15T02:00:53.017Z,992.55
2023-01-15T02:01:53.129Z,992.58
2023-01-15T02:02:52.980Z,992.55
2023-01-15T02:03:52.966Z,992.63
2023-01-15T02:04:52.973Z,992.61
2023-01-15T02:05:52.948Z,992.56
2023-01-15T02:06:52.939Z,992.58
2023-01-15T02:07:52.917Z,992.55
2023-01-15T02:08:52.934Z,992.58
2023-01-15T02:09:52.923Z,992.47
2023-01-15T02:10:52.890Z,992.48
2023-01-15T02:11:52.881Z,992.45
2023-01-15T02:12:52.872Z,992.50
2023-01-15T02:13:52.854Z,992.56
2023-01-15T02:14:52.870Z,992.53
2023-01-15T02:15:52.832Z,992.56
2023-01-15T02:16:52.833Z,992.55
2023-01-15T02:17:52.813Z,992.49
2023-01-15T02:18:52.796Z,992.50
2023-01-15T02:19:52.804Z,992.51
2023-01-15T02:20:52.804Z,992.44
2023-01-15T02:21:52.765Z,992.49
2023-01-15T02:22:52.752Z,992.45
2023-01-15T02:23:52.753Z,992.45
2023-01-15T02:24:52.758Z,992.39
2023-01-15T02:25:52.727Z,992.46
2023-01-15T02:26:52.714Z,992.44
2023-01-15T02:27:52.702Z,992.50
2023-01-15T02:28:52.690Z,992.53
2023-01-15T02:29:52.717Z,992.48
2023-01-15T02:30:52.689Z,992.58
2023-01-15T02:31:52.723Z,992.57
2023-01-15T02:32:52.659Z,992.59
2023-01-15T02:33:52.660Z,992.63
2023-01-15T02:34:52.645Z,992.54
2023-01-15T02:35:52.620Z,992.55
2023-01-15T02:36:52.605Z,992.53
2023-01-15T02:37:52.620Z,992.57
2023-01-15T02:38:52.587Z,992.43
2023-01-15T02:39:52.606Z,992.47
2023-01-15T02:40:52.566Z,992.52
2023-01-15T02:41:52.563Z,992.53
2023-01-15T02:42:52.537Z,992.44
2023-01-15T02:43:52.556Z,992.35
2023-01-15T02:44:52.513Z,992.44
2023-01-15T02:45:52.557Z,992.45
2023-01-15T02:46:52.514Z,992.43
2023-01-15T02:47:52.488Z,992.41
2023-01-15T02:48:52.470Z,992.40
2023-01-15T02:49:52.459Z,992.39
2023-01-15T02:50:52.448Z,992.40
2023-01-15T02:51:52.445Z,992.38
2023-01-15T02:52:52.456Z,992.39
2023-01-15T02:53:52.424Z,992.34
2023-01-15T02:54:52.403Z,992.36
2023-01-15T02:55:52.404Z,992.30
2023-01-15T02:56:52.383Z,992.40
2023-01-15T02:57:52.399Z,992.41
2023-01-15T02:58:52.363Z,992.40
2023-01-15T02:59:52.371Z,992.37
2023-01-15T03:00:52.474Z,992.35
2023-01-15T03:01:52.538Z,992.36
2023-01-15T03:02:52.444Z,992.33
2023-01-15T03:03:52.318Z,992.34
2023-01-15T03:04:52.296Z,992.44
2023-01-15T03:05:52.287Z,992.39
2023-01-15T03:06:52.312Z,992.35
2023-01-15T03:07:52.315Z,992.38
2023-01-15T03:08:52.252Z,992.35
2023-01-15T03:09:52.244Z,992.37
2023-01-15T03:10:52.230Z,992.36
2023-01-15T03:11:52.246Z,992.36
2023-01-15T03:12:52.237Z,992.38
2023-01-15T03:13:52.196Z,992.38
2023-01-15T03:14:52.192Z,992.42
2023-01-15T03:15:52.185Z,992.25
2023-01-15T03:16:52.228Z,992.38
2023-01-15T03:17:52.186Z,992.32
2023-01-15T03:18:52.155Z,992.26
2023-01-15T03:19:52.137Z,992.27
2023-01-15T03:20:52.119Z,992.26
2023-01-15T03:21:52.113Z,992.30
2023-01-15T03:22:52.117Z,992.23
2023-01-15T03:23:52.096Z,992.21
2023-01-15T03:24:52.085Z,992.16
2023-01-15T03:25:52.080Z,992.19
2023-01-15T03:26:52.061Z,992.24
2023-01-15T03:27:52.071Z,992.16
2023-01-15T03:28:52.038Z,992.20
2023-01-15T03:29:52.022Z,992.25
2023-01-15T03:30:52.112Z,992.20
2023-01-15T03:31:52.002Z,992.26
2023-01-15T03:32:52.017Z,992.24
2023-01-15T03:33:51.981Z,992.24
2023-01-15T03:34:51.989Z,992.21
2023-01-15T03:35:51.963Z,992.21
2023-01-15T03:36:51.954Z,992.24
2023-01-15T03:37:51.957Z,992.26
2023-01-15T03:38:51.928Z,992.24
2023-01-15T03:39:51.942Z,992.33
2023-01-15T03:40:51.913Z,992.31
2023-01-15T03:41:51.903Z,992.26
2023-01-15T03:42:51.890Z,992.31
2023-01-15T03:43:51.897Z,992.32
2023-01-15T03:44:51.934Z,992.29
2023-01-15T03:45:51.875Z,992.29
2023-01-15T03:46:51.849Z,992.32
2023-01-15T03:47:51.837Z,992.35
2023-01-15T03:48:51.850Z,992.36
2023-01-15T03:49:51.807Z,992.33
2023-01-15T03:50:51.823Z,992.48
2023-01-15T03:51:51.797Z,992.43
2023-01-15T03:52:51.778Z,992.41
2023-01-15T03:53:51.875Z,992.37
2023-01-15T03:54:51.759Z,992.37
2023-01-15T03:55:51.770Z,992.32
2023-01-15T03:56:51.735Z,992.28
2023-01-15T03:57:51.745Z,992.35
2023-01-15T03:58:51.713Z,992.43
2023-01-15T03:59:51.697Z,992.55
2023-01-15T04:00:51.717Z,992.54
2023-01-15T04:01:51.789Z,992.50
2023-01-15T04:02:51.716Z,992.76
2023-01-15T04:03:51.680Z,992.84
2023-01-15T04:04:51.650Z,992.88
2023-01-15T04:05:51.649Z,992.84
2023-01-15T04:06:51.627Z,992.94
2023-01-15T04:07:51.640Z,992.95
2023-01-15T04:08:51.607Z,993.06
2023-01-15T04:09:51.590Z,993.04
2023-01-15T04:10:51.584Z,993.02
2023-01-15T04:11:51.577Z,993.15
2023-01-15T04:12:51.600Z,993.15
2023-01-15T04:13:51.557Z,993.20
2023-01-15T04:14:51.540Z,993.23
2023-01-15T04:15:51.545Z,993.32
2023-01-15T04:16:51.518Z,993.34
2023-01-15T04:17:51.531Z,993.25
2023-01-15T04:18:51.514Z,993.50
2023-01-15T04:19:51.487Z,993.42
2023-01-15T04:20:51.480Z,993.35
2023-01-15T04:21:51.461Z,993.45
2023-01-15T04:22:51.468Z,993.42
2023-01-15T04:23:51.476Z,993.53
2023-01-15T04:24:51.439Z,993.56
2023-01-15T04:25:51.419Z,993.49
2023-01-15T04:26:51.414Z,993.66
2023-01-15T04:27:51.398Z,993.58
2023-01-15T04:28:51.418Z,993.73
2023-01-15T04:29:51.378Z,993.78
2023-01-15T04:30:51.383Z,993.79
2023-01-15T04:31:51.355Z,993.79
2023-01-15T04:32:51.363Z,993.83
2023-01-15T04:33:51.335Z,993.79
2023-01-15T04:34:51.325Z,993.73
2023-01-15T04:35:51.325Z,993.80
2023-01-15T04:36:51.313Z,993.71
2023-01-15T04:37:51.316Z,993.77
2023-01-15T04:38:51.286Z,993.65
2023-01-15T04:39:51.266Z,993.74
2023-01-15T04:40:51.284Z,993.75
2023-01-15T04:41:51.250Z,993.74
2023-01-15T04:42:51.244Z,993.65
2023-01-15T04:43:51.253Z,993.79
2023-01-15T04:44:51.239Z,993.85
2023-01-15T04:45:51.275Z,993.97
2023-01-15T04:46:51.206Z,994.00
2023-01-15T04:47:51.179Z,993.97
2023-01-15T04:48:51.198Z,994.00
2023-01-15T04:49:51.171Z,993.98
2023-01-15T04:50:51.176Z,994.01
2023-01-15T04:51:51.151Z,993.97
2023-01-15T04:52:51.133Z,994.15
2023-01-15T04:53:51.135Z,994.10
2023-01-15T04:54:51.134Z,994.04
2023-01-15T04:55:51.100Z,994.03
2023-01-15T04:56:51.093Z,994.01
2023-01-15T04:57:51.073Z,994.05
2023-01-15T04:58:51.096Z,993.98
2023-01-15T04:59:51.081Z,993.94
2023-01-15T05:00:51.047Z,993.99
2023-01-15T05:02:03.182Z,993.95
2023-01-15T05:02:52.020Z,993.91
2023-01-15T05:03:51.015Z,994.00
2023-01-15T05:04:51.137Z,993.96
2023-01-15T05:05:50.994Z,994.00
2023-01-15T05:06:51.008Z,994.00
2023-01-15T05:07:50.960Z,994.06
2023-01-15T05:08:50.959Z,994.04
2023-01-15T05:09:50.946Z,994.01
2023-01-15T05:10:50.940Z,994.04
2023-01-15T05:11:50.920Z,994.00
2023-01-15T05:12:50.936Z,994.07
2023-01-15T05:13:50.899Z,994.08
2023-01-15T05:14:50.891Z,994.05
2023-01-15T05:15:50.918Z,994.06
2023-01-15T05:16:50.883Z,994.06
2023-01-15T05:17:50.876Z,994.11
2023-01-15T05:18:50.852Z,994.05
2023-01-15T05:19:50.832Z,994.08
2023-01-15T05:20:50.825Z,994.01
2023-01-15T05:21:50.809Z,994.00
2023-01-15T05:22:50.828Z,993.92
2023-01-15T05:23:50.815Z,993.91
2023-01-15T05:24:50.782Z,993.85
2023-01-15T05:25:50.771Z,993.90
2023-01-15T05:26:50.759Z,993.89
2023-01-15T05:27:50.771Z,993.90
2023-01-15T05:28:50.745Z,993.86
2023-01-15T05:29:50.750Z,993.89
2023-01-15T05:30:50.840Z,993.98
2023-01-15T05:31:50.707Z,993.91
2023-01-15T05:32:50.697Z,993.90
2023-01-15T05:33:50.683Z,993.92
2023-01-15T05:34:50.695Z,993.92
2023-01-15T05:35:50.661Z,993.95
2023-01-15T05:36:50.647Z,993.93
2023-01-15T05:37:50.637Z,993.97
2023-01-15T05:38:50.631Z,994.02
2023-01-15T05:39:50.644Z,994.06
2023-01-15T05:40:50.612Z,994.02
2023-01-15T05:41:50.869Z,993.96
2023-01-15T05:42:50.586Z,994.00
2023-01-15T05:43:50.596Z,993.98
2023-01-15T05:44:50.561Z,993.98
2023-01-15T05:45:50.552Z,994.00
2023-01-15T05:46:50.563Z,994.07
2023-01-15T05:47:50.528Z,994.09
2023-01-15T05:48:50.519Z,994.04
2023-01-15T05:49:50.531Z,994.05
2023-01-15T05:50:50.494Z,994.04
2023-01-15T05:51:50.525Z,993.99
2023-01-15T05:52:50.484Z,994.03
2023-01-15T05:53:50.470Z,994.04
2023-01-15T05:54:50.453Z,994.08
2023-01-15T05:55:50.446Z,994.04
2023-01-15T05:56:50.453Z,993.99
2023-01-15T05:57:50.419Z,994.01
2023-01-15T05:58:50.412Z,993.99
2023-01-15T05:59:50.425Z,993.96
2023-01-15T06:00:50.389Z,993.92
2023-01-15T06:01:50.384Z,993.84
2023-01-15T06:02:50.387Z,993.85
2023-01-15T06:03:50.408Z,993.86
2023-01-15T06:04:50.368Z,993.88
2023-01-15T06:05:50.333Z,993.91
2023-01-15T06:06:50.335Z,993.88
2023-01-15T06:07:50.316Z,993.88
2023-01-15T06:08:50.308Z,993.85
2023-01-15T06:09:50.350Z,993.87
2023-01-15T06:10:50.276Z,993.80
2023-01-15T06:11:50.271Z,993.79
2023-01-15T06:12:50.263Z,993.81
2023-01-15T06:13:50.248Z,993.84
2023-01-15T06:14:50.263Z,993.74
2023-01-15T06:15:50.304Z,993.69
2023-01-15T06:16:50.234Z,993.66
2023-01-15T06:17:50.224Z,993.60
2023-01-15T06:18:50.195Z,993.62
2023-01-15T06:19:50.185Z,993.59
2023-01-15T06:20:50.172Z,993.65
2023-01-15T06:21:50.181Z,993.74
2023-01-15T06:22:50.156Z,993.78
2023-01-15T06:23:50.158Z,993.76
2023-01-15T06:24:50.132Z,993.75
2023-01-15T06:25:50.119Z,993.71
2023-01-15T06:26:50.132Z,993.67
2023-01-15T06:27:50.101Z,993.74
2023-01-15T06:28:50.117Z,993.71
2023-01-15T06:29:50.093Z,993.70
2023-01-15T06:30:50.066Z,993.72
2023-01-15T06:31:50.241Z,993.71
2023-01-15T06:32:50.046Z,993.68
2023-01-15T06:33:50.058Z,993.69
2023-01-15T06:34:50.052Z,993.76
2023-01-15T06:35:50.032Z,993.74
2023-01-15T06:36:50.012Z,993.81
2023-01-15T06:37:49.992Z,993.77
2023-01-15T06:38:49.991Z,993.80
2023-01-15T06:39:49.994Z,993.82
2023-01-15T06:40:49.959Z,993.96
2023-01-15T06:41:49.950Z,993.89
2023-01-15T06:42:49.957Z,993.90
2023-01-15T06:43:49.923Z,993.93
2023-01-15T06:44:49.943Z,993.95
2023-01-15T06:45:49.900Z,993.91
2023-01-15T06:46:49.930Z,993.96
2023-01-15T06:47:49.880Z,993.96
2023-01-15T06:48:49.870Z,993.95
2023-01-15T06:49:49.886Z,993.90
2023-01-15T06:50:49.848Z,993.86
2023-01-15T06:51:49.835Z,993.93
2023-01-15T06:52:49.832Z,993.91
2023-01-15T06:53:49.843Z,993.91
2023-01-15T06:54:49.825Z,993.92
2023-01-15T06:55:49.819Z,993.90
2023-01-15T06:56:49.782Z,993.90
2023-01-15T06:57:49.779Z,993.88
2023-01-15T06:58:49.767Z,994.00
2023-01-15T06:59:49.755Z,994.01
2023-01-15T07:00:49.833Z,994.06
2023-01-15T07:01:49.851Z,994.16
2023-01-15T07:02:49.724Z,994.13
2023-01-15T07:03:49.754Z,994.13
2023-01-15T07:04:49.757Z,994.07
2023-01-15T07:05:49.692Z,994.01
2023-01-15T07:06:49.711Z,994.12
2023-01-15T07:07:49.682Z,994.07
2023-01-15T07:08:49.661Z,994.18
2023-01-15T07:09:49.678Z,994.22
2023-01-15T07:10:49.638Z,994.26
2023-01-15T07:11:49.939Z,994.22
2023-01-15T07:12:49.613Z,994.19
2023-01-15T07:13:49.605Z,994.21
2023-01-15T07:14:49.616Z,994.34
2023-01-15T07:15:49.579Z,994.32
2023-01-15T07:16:49.617Z,994.27
2023-01-15T07:17:49.568Z,994.23
2023-01-15T07:18:49.557Z,994.27
2023-01-15T07:19:49.546Z,994.27
2023-01-15T07:20:49.530Z,994.23
2023-01-15T07:21:49.517Z,994.20
2023-01-15T07:22:49.532Z,994.20
2023-01-15T07:23:49.495Z,994.12
2023-01-15T07:24:49.488Z,994.15
2023-01-15T07:25:49.512Z,994.14
2023-01-15T07:26:49.465Z,994.20
2023-01-15T07:27:49.479Z,994.22
2023-01-15T07:28:49.445Z,994.20
2023-01-15T07:29:49.448Z,994.19
2023-01-15T07:30:49.458Z,994.19
2023-01-15T07:31:49.406Z,994.12
2023-01-15T07:32:49.401Z,994.20
2023-01-15T07:33:49.406Z,994.23
2023-01-15T07:34:49.380Z,994.19
2023-01-15T07:35:49.388Z,994.22
2023-01-15T07:36:49.364Z,994.26
2023-01-15T07:37:49.344Z,994.21
2023-01-15T07:38:49.365Z,994.26
2023-01-15T07:39:49.327Z,994.22
2023-01-15T07:40:49.314Z,994.23
2023-01-15T07:41:49.306Z,994.30
2023-01-15T07:42:49.293Z,994.31
2023-01-15T07:43:49.283Z,994.33
2023-01-15T07:44:49.287Z,994.36
2023-01-15T07:45:49.278Z,994.30
2023-01-15T07:46:49.245Z,994.34
2023-01-15T07:47:49.240Z,994.35
2023-01-15T07:48:49.230Z,994.36
2023-01-15T07:49:49.257Z,994.35
2023-01-15T07:50:49.206Z,994.43
2023-01-15T07:51:49.201Z,994.43
2023-01-15T07:52:50.823Z,994.41
2023-01-15T07:53:49.216Z,994.46
2023-01-15T07:54:49.160Z,994.39
2023-01-15T07:55:49.150Z,994.48
2023-01-15T07:56:49.139Z,994.45
2023-01-15T07:57:49.152Z,994.54
2023-01-15T07:58:49.161Z,994.51
2023-01-15T07:59:49.161Z,994.51
2023-01-15T08:00:49.125Z,994.48
2023-01-15T08:01:49.254Z,994.54
2023-01-15T08:02:49.073Z,994.52
2023-01-15T08:03:49.115Z,994.55
2023-01-15T08:04:49.073Z,994.53
2023-01-15T08:05:49.043Z,994.47
2023-01-15T08:06:49.030Z,994.45
2023-01-15T08:07:49.057Z,994.51
2023-01-15T08:08:49.034Z,994.54
2023-01-15T08:09:49.007Z,994.64
2023-01-15T08:10:48.988Z,994.65
2023-01-15T08:11:48.990Z,994.63
2023-01-15T08:12:48.967Z,994.66
2023-01-15T08:13:48.983Z,994.55
2023-01-15T08:14:48.946Z,994.51
2023-01-15T08:15:48.938Z,994.42
2023-01-15T08:16:48.928Z,994.43
2023-01-15T08:17:48.917Z,994.36
2023-01-15T08:18:48.921Z,994.38
2023-01-15T08:19:48.895Z,994.40
2023-01-15T08:20:48.879Z,994.34
2023-01-15T08:21:48.875Z,994.26
2023-01-15T08:22:48.880Z,994.27
2023-01-15T08:23:48.856Z,994.29
2023-01-15T08:24:48.868Z,994.36
2023-01-15T08:25:48.841Z,994.31
2023-01-15T08:26:48.819Z,994.22
2023-01-15T08:27:48.852Z,994.29
2023-01-15T08:28:48.801Z,994.28
2023-01-15T08:29:48.785Z,994.34
2023-01-15T08:30:48.810Z,994.31
2023-01-15T08:31:48.802Z,994.30
2023-01-15T08:32:48.779Z,994.26
2023-01-15T08:33:48.742Z,994.31
2023-01-15T08:34:48.734Z,994.38
2023-01-15T08:35:48.724Z,994.43
2023-01-15T08:36:48.709Z,994.46
2023-01-15T08:37:48.719Z,994.49
2023-01-15T08:38:48.707Z,994.56
2023-01-15T08:39:48.682Z,994.53
2023-01-15T08:40:48.676Z,994.49
2023-01-15T08:41:48.659Z,994.47
2023-01-15T08:42:48.660Z,994.42
2023-01-15T08:43:48.663Z,994.47
2023-01-15T08:44:48.626Z,994.43
2023-01-15T08:45:48.643Z,994.53
2023-01-15T08:46:48.607Z,994.58
2023-01-15T08:47:48.589Z,994.56
2023-01-15T08:48:48.596Z,994.54
2023-01-15T08:49:48.571Z,994.53
2023-01-15T08:50:48.584Z,994.54
2023-01-15T08:51:48.550Z,994.58
2023-01-15T08:52:48.543Z,994.57
2023-01-15T08:53:48.533Z,994.55
2023-01-15T08:54:48.517Z,994.52
2023-01-15T08:55:48.539Z,994.55
2023-01-15T08:56:48.491Z,994.51
2023-01-15T08:57:48.486Z,994.48
2023-01-15T08:58:48.590Z,994.45
2023-01-15T08:59:48.465Z,994.46
2023-01-15T09:00:48.522Z,994.40
2023-01-15T09:01:48.572Z,994.42
2023-01-15T09:02:50.161Z,994.44
2023-01-15T09:03:48.429Z,994.47
2023-01-15T09:04:48.500Z,994.41
2023-01-15T09:05:48.409Z,994.50
2023-01-15T09:06:48.394Z,994.47
2023-01-15T09:07:48.387Z,994.56
2023-01-15T09:08:48.383Z,994.58
2023-01-15T09:09:48.392Z,994.61
2023-01-15T09:10:48.363Z,994.61
2023-01-15T09:11:48.352Z,994.64
2023-01-15T09:12:48.326Z,994.69
2023-01-15T09:13:48.327Z,994.63
2023-01-15T09:14:56.732Z,994.70
2023-01-15T09:15:49.295Z,994.65
2023-01-15T09:16:48.354Z,994.68
2023-01-15T09:17:48.280Z,994.66
2023-01-15T09:18:48.268Z,994.69
2023-01-15T09:19:48.286Z,994.66
2023-01-15T09:20:48.233Z,994.76
2023-01-15T09:21:48.254Z,994.67
2023-01-15T09:22:48.221Z,994.77
2023-01-15T09:23:48.211Z,994.75
2023-01-15T09:24:48.222Z,994.71
2023-01-15T09:25:48.189Z,994.66
2023-01-15T09:26:48.188Z,994.66
2023-01-15T09:27:48.166Z,994.67
2023-01-15T09:28:48.145Z,994.65
2023-01-15T09:29:48.141Z,994.66
2023-01-15T09:30:48.225Z,994.74
2023-01-15T09:31:48.145Z,994.69
2023-01-15T09:32:48.104Z,994.81
2023-01-15T09:33:48.119Z,994.79
2023-01-15T09:34:48.083Z,994.72
2023-01-15T09:35:48.073Z,994.71
2023-01-15T09:36:48.062Z,994.73
2023-01-15T09:37:48.059Z,994.81
2023-01-15T09:38:48.063Z,994.72
2023-01-15T09:39:48.049Z,994.81
2023-01-15T09:40:48.045Z,994.79
2023-01-15T09:41:48.011Z,994.76
2023-01-15T09:42:47.999Z,994.81
2023-01-15T09:43:51.182Z,994.83
2023-01-15T09:44:47.976Z,994.85
2023-01-15T09:45:48.091Z,994.84
2023-01-15T09:46:47.953Z,994.89
2023-01-15T09:47:47.967Z,994.86
2023-01-15T09:48:47.963Z,994.90
2023-01-15T09:49:47.926Z,994.93
2023-01-15T09:50:47.917Z,994.94
2023-01-15T09:51:47.925Z,994.94
2023-01-15T09:52:47.917Z,994.92
2023-01-15T09:53:47.886Z,994.95
2023-01-15T09:54:47.869Z,994.87
2023-01-15T09:55:47.860Z,994.89
2023-01-15T09:56:47.856Z,994.92
2023-01-15T09:57:47.863Z,994.87
2023-01-15T09:58:47.846Z,994.90
2023-01-15T09:59:47.820Z,994.87
2023-01-15T10:00:47.849Z,994.89
2023-01-15T10:01:47.797Z,994.94
2023-01-15T10:02:47.791Z,994.87
2023-01-15T10:03:47.844Z,994.87
2023-01-15T10:04:47.764Z,994.92
2023-01-15T10:05:47.759Z,994.90
2023-01-15T10:06:47.770Z,994.90
2023-01-15T10:07:47.729Z,994.87
2023-01-15T10:08:47.718Z,994.94
2023-01-15T10:09:47.717Z,994.88
2023-01-15T10:10:47.715Z,994.81
2023-01-15T10:11:47.688Z,994.81
2023-01-15T10:12:47.693Z,994.71
2023-01-15T10:13:47.689Z,994.70
2023-01-15T10:14:47.662Z,994.76
2023-01-15T10:15:47.679Z,994.78
2023-01-15T10:16:47.632Z,994.74
2023-01-15T10:17:48.733Z,994.82
2023-01-15T10:18:47.615Z,994.80
2023-01-15T10:19:47.630Z,994.81
2023-01-15T10:20:47.618Z,994.76
2023-01-15T10:21:47.589Z,994.83
2023-01-15T10:22:47.575Z,994.78
2023-01-15T10:23:47.570Z,994.81
2023-01-15T10:24:47.547Z,994.81
2023-01-15T10:25:47.541Z,994.79
2023-01-15T10:26:47.553Z,994.75
2023-01-15T10:27:47.514Z,994.76
2023-01-15T10:28:47.614Z,994.71
2023-01-15T10:29:47.496Z,994.69
2023-01-15T10:30:47.494Z,994.67
2023-01-15T10:31:47.501Z,994.75
2023-01-15T10:33:01.057Z,994.73
2023-01-15T10:33:48.452Z,994.66
2023-01-15T10:34:47.438Z,994.72
2023-01-15T10:35:47.433Z,994.68
2023-01-15T10:36:47.442Z,994.76
2023-01-15T10:37:47.416Z,994.75
2023-01-15T10:38:47.421Z,994.77
2023-01-15T10:39:47.391Z,994.73
2023-01-15T10:40:47.375Z,994.69
2023-01-15T10:41:47.388Z,994.74
2023-01-15T10:42:47.379Z,994.78
2023-01-15T10:43:47.364Z,994.78
2023-01-15T10:44:47.337Z,994.78
2023-01-15T10:45:47.364Z,994.83
2023-01-15T10:46:47.316Z,994.86
2023-01-15T10:47:47.327Z,994.79
2023-01-15T10:48:47.292Z,994.83
2023-01-15T10:49:47.282Z,994.87
2023-01-15T10:50:47.266Z,994.73
2023-01-15T10:51:47.261Z,994.83
2023-01-15T10:52:47.280Z,994.78
2023-01-15T10:53:47.240Z,994.87
2023-01-15T10:54:47.226Z,994.85
2023-01-15T10:55:47.222Z,994.78
2023-01-15T10:56:47.208Z,994.81
2023-01-15T10:57:47.219Z,994.67
2023-01-15T10:58:47.181Z,994.69
2023-01-15T10:59:47.170Z,994.68
2023-01-15T11:00:47.173Z,994.77
2023-01-15T11:01:47.234Z,994.79
2023-01-15T11:02:47.234Z,994.80
2023-01-15T11:03:47.131Z,994.85
2023-01-15T11:04:47.136Z,994.91
2023-01-15T11:05:47.146Z,994.79
2023-01-15T11:06:47.093Z,994.92
2023-01-15T11:08:12.955Z,994.93
2023-01-15T11:09:08.646Z,994.92
2023-01-15T11:09:48.071Z,994.91
2023-01-15T11:10:47.054Z,994.96
2023-01-15T11:11:47.043Z,994.94
2023-01-15T11:12:47.039Z,994.93
2023-01-15T11:13:47.055Z,994.89
2023-01-15T11:14:47.007Z,994.82
2023-01-15T11:15:47.026Z,995.01
2023-01-15T11:16:46.985Z,994.99
2023-01-15T11:17:46.977Z,995.06
2023-01-15T11:18:46.989Z,994.98
2023-01-15T11:19:46.966Z,994.96
2023-01-15T11:20:46.948Z,994.98
2023-01-15T11:21:46.939Z,994.95
2023-01-15T11:22:46.922Z,994.92
2023-01-15T11:23:46.937Z,994.95
2023-01-15T11:24:46.900Z,994.90
2023-01-15T11:25:46.916Z,994.89
2023-01-15T11:26:46.880Z,994.86
2023-01-15T11:27:46.875Z,994.88
2023-01-15T11:28:46.857Z,994.89
2023-01-15T11:29:46.853Z,994.88
2023-01-15T11:30:46.923Z,994.84
2023-01-15T11:31:46.845Z,994.93
2023-01-15T11:32:46.817Z,994.94
2023-01-15T11:33:46.817Z,994.87
2023-01-15T11:34:46.794Z,994.94
2023-01-15T11:35:46.813Z,994.87
2023-01-15T11:36:46.770Z,994.87
2023-01-15T11:37:46.759Z,994.92
2023-01-15T11:38:46.745Z,994.89
2023-01-15T11:39:46.741Z,994.93
2023-01-15T11:40:48.768Z,994.90
2023-01-15T11:41:46.721Z,994.81
2023-01-15T11:42:46.702Z,994.92
2023-01-15T11:43:46.699Z,994.81
2023-01-15T11:44:46.681Z,994.80
2023-01-15T11:45:46.700Z,994.84
2023-01-15T11:46:46.785Z,994.89
2023-01-15T11:47:46.671Z,994.84
2023-01-15T11:48:46.638Z,994.77
2023-01-15T11:49:46.638Z,994.81
2023-01-15T11:50:46.648Z,994.79
2023-01-15T11:51:46.610Z,994.74
2023-01-15T11:52:46.604Z,994.77
2023-01-15T11:53:46.611Z,994.73
2023-01-15T11:54:46.584Z,994.67
2023-01-15T11:55:46.583Z,994.73
2023-01-15T11:56:46.591Z,994.69
2023-01-15T11:57:46.541Z,994.78
2023-01-15T11:58:46.551Z,994.78
2023-01-15T11:59:46.520Z,994.85
2023-01-15T12:00:46.514Z,994.81
2023-01-15T12:01:46.520Z,994.78
2023-01-15T12:02:46.511Z,994.75
2023-01-15T12:03:46.714Z,994.78
2023-01-15T12:04:46.538Z,994.74
2023-01-15T12:05:46.454Z,994.79
2023-01-15T12:06:46.448Z,994.76
2023-01-15T12:07:46.444Z,994.78
2023-01-15T12:08:46.429Z,994.83
2023-01-15T12:09:46.427Z,994.76
2023-01-15T12:10:46.400Z,994.78
2023-01-15T12:11:46.391Z,994.78
2023-01-15T12:12:46.384Z,994.75
2023-01-15T12:13:46.390Z,994.71
2023-01-15T12:14:46.359Z,994.70
2023-01-15T12:15:46.398Z,994.65
2023-01-15T12:16:46.342Z,994.68
2023-01-15T12:17:46.324Z,994.74
2023-01-15T12:18:46.345Z,994.72
2023-01-15T12:19:46.312Z,994.62
2023-01-15T12:20:46.295Z,994.71
2023-01-15T12:21:46.294Z,994.71
2023-01-15T12:22:46.270Z,994.66
2023-01-15T12:23:46.259Z,994.72
2023-01-15T12:24:46.268Z,994.76
2023-01-15T12:25:46.237Z,994.61
2023-01-15T12:26:46.235Z,994.77
2023-01-15T12:27:46.215Z,994.79
2023-01-15T12:28:46.223Z,994.82